sensor_id;sensor_type;location;lat;lon;timestamp;P1;durP1;ratioP1;P2;durP2;ratioP2
23730;SDS011;12046;44.702;10.622;2022-08-21T00:00:08;1.40;;;1.30;;
23730;SDS011;12046;44.702;10.622;2022-08-21T00:02:45;2.20;;;1.35;;
23730;SDS011;12046;44.702;10.622;2022-08-21T00:05:22;2.17;;;1.40;;
23730;SDS011;12046;44.702;10.622;2022-08-21T00:07:49;1.55;;;1.10;;
23730;SDS011;12046;44.702;10.622;2022-08-21T00:10:16;1.95;;;1.50;;
23730;SDS011;12046;44.702;10.622;2022-08-21T00:12:42;3.25;;;1.63;;
23730;SDS011;12046;44.702;10.622;2022-08-21T00:15:10;1.50;;;1.40;;
23730;SDS011;12046;44.702;10.622;2022-08-21T00:17:37;2.65;;;1.40;;
23730;SDS011;12046;44.702;10.622;2022-08-21T00:20:04;1.90;;;1.55;;
23730;SDS011;12046;44.702;10.622;2022-08-21T00:22:33;3.53;;;1.80;;
23730;SDS011;12046;44.702;10.622;2022-08-21T00:25:00;1.92;;;1.48;;
23730;SDS011;12046;44.702;10.622;2022-08-21T00:27:27;1.65;;;1.55;;
23730;SDS011;12046;44.702;10.622;2022-08-21T00:29:53;2.42;;;1.92;;
23730;SDS011;12046;44.702;10.622;2022-08-21T00:32:21;4.10;;;1.70;;
23730;SDS011;12046;44.702;10.622;2022-08-21T00:34:48;2.28;;;1.70;;
23730;SDS011;12046;44.702;10.622;2022-08-21T00:37:15;2.15;;;1.52;;
23730;SDS011;12046;44.702;10.622;2022-08-21T00:39:41;2.28;;;1.63;;
23730;SDS011;12046;44.702;10.622;2022-08-21T00:42:08;4.97;;;1.95;;
23730;SDS011;12046;44.702;10.622;2022-08-21T00:44:34;2.00;;;1.75;;
23730;SDS011;12046;44.702;10.622;2022-08-21T00:47:00;4.40;;;1.65;;
23730;SDS011;12046;44.702;10.622;2022-08-21T00:49:26;5.05;;;1.83;;
23730;SDS011;12046;44.702;10.622;2022-08-21T00:51:57;2.80;;;1.80;;
23730;SDS011;12046;44.702;10.622;2022-08-21T00:54:26;1.80;;;1.70;;
23730;SDS011;12046;44.702;10.622;2022-08-21T00:57:02;3.88;;;2.47;;
23730;SDS011;12046;44.702;10.622;2022-08-21T00:59:33;2.95;;;1.95;;
23730;SDS011;12046;44.702;10.622;2022-08-21T01:02:03;2.92;;;1.90;;
23730;SDS011;12046;44.702;10.622;2022-08-21T01:04:30;3.72;;;1.90;;
23730;SDS011;12046;44.702;10.622;2022-08-21T01:06:56;2.20;;;1.85;;
23730;SDS011;12046;44.702;10.622;2022-08-21T01:09:22;2.63;;;2.00;;
23730;SDS011;12046;44.702;10.622;2022-08-21T01:11:48;3.30;;;1.98;;
23730;SDS011;12046;44.702;10.622;2022-08-21T01:14:15;2.03;;;1.83;;
23730;SDS011;12046;44.702;10.622;2022-08-21T01:16:42;3.42;;;2.33;;
23730;SDS011;12046;44.702;10.622;2022-08-21T01:19:11;6.47;;;2.20;;
23730;SDS011;12046;44.702;10.622;2022-08-21T01:21:39;3.92;;;2.42;;
23730;SDS011;12046;44.702;10.622;2022-08-21T01:24:05;4.07;;;2.53;;
23730;SDS011;12046;44.702;10.622;2022-08-21T01:26:31;2.58;;;2.38;;
23730;SDS011;12046;44.702;10.622;2022-08-21T01:29:51;4.05;;;2.83;;
23730;SDS011;12046;44.702;10.622;2022-08-21T01:32:04;3.40;;;2.45;;
23730;SDS011;12046;44.702;10.622;2022-08-21T01:34:33;3.75;;;2.85;;
23730;SDS011;12046;44.702;10.622;2022-08-21T01:37:00;3.50;;;2.83;;
23730;SDS011;12046;44.702;10.622;2022-08-21T01:39:28;3.70;;;2.67;;
23730;SDS011;12046;44.702;10.622;2022-08-21T01:41:54;3.53;;;2.88;;
23730;SDS011;12046;44.702;10.622;2022-08-21T01:44:21;2.88;;;2.20;;
23730;SDS011;12046;44.702;10.622;2022-08-21T01:46:48;3.47;;;2.53;;
23730;SDS011;12046;44.702;10.622;2022-08-21T01:49:14;3.50;;;2.25;;
23730;SDS011;12046;44.702;10.622;2022-08-21T01:51:41;3.08;;;2.10;;
23730;SDS011;12046;44.702;10.622;2022-08-21T01:54:07;3.75;;;2.58;;
23730;SDS011;12046;44.702;10.622;2022-08-21T01:56:44;2.95;;;2.65;;
23730;SDS011;12046;44.702;10.622;2022-08-21T01:59:12;2.92;;;1.95;;
23730;SDS011;12046;44.702;10.622;2022-08-21T02:01:39;2.53;;;2.20;;
23730;SDS011;12046;44.702;10.622;2022-08-21T02:04:06;4.53;;;2.47;;
23730;SDS011;12046;44.702;10.622;2022-08-21T02:06:33;2.50;;;2.20;;
23730;SDS011;12046;44.702;10.622;2022-08-21T02:09:00;2.20;;;1.90;;
23730;SDS011;12046;44.702;10.622;2022-08-21T02:11:28;4.03;;;2.33;;
23730;SDS011;12046;44.702;10.622;2022-08-21T02:13:56;3.20;;;2.50;;
23730;SDS011;12046;44.702;10.622;2022-08-21T02:16:22;3.33;;;2.42;;
23730;SDS011;12046;44.702;10.622;2022-08-21T02:18:48;2.67;;;2.38;;
23730;SDS011;12046;44.702;10.622;2022-08-21T02:21:14;3.90;;;2.55;;
23730;SDS011;12046;44.702;10.622;2022-08-21T02:23:40;3.33;;;2.58;;
23730;SDS011;12046;44.702;10.622;2022-08-21T02:26:07;3.67;;;2.38;;
23730;SDS011;12046;44.702;10.622;2022-08-21T02:28:34;3.75;;;2.50;;
23730;SDS011;12046;44.702;10.622;2022-08-21T02:31:01;2.65;;;2.10;;
23730;SDS011;12046;44.702;10.622;2022-08-21T02:33:28;2.28;;;1.98;;
23730;SDS011;12046;44.702;10.622;2022-08-21T02:35:54;3.50;;;2.17;;
23730;SDS011;12046;44.702;10.622;2022-08-21T02:38:28;3.00;;;2.20;;
23730;SDS011;12046;44.702;10.622;2022-08-21T02:40:59;3.58;;;2.00;;
23730;SDS011;12046;44.702;10.622;2022-08-21T02:43:26;3.95;;;2.15;;
23730;SDS011;12046;44.702;10.622;2022-08-21T02:45:53;4.28;;;2.17;;
23730;SDS011;12046;44.702;10.622;2022-08-21T02:48:21;2.85;;;2.13;;
23730;SDS011;12046;44.702;10.622;2022-08-21T02:50:53;2.80;;;1.90;;
23730;SDS011;12046;44.702;10.622;2022-08-21T02:53:21;2.67;;;1.98;;
23730;SDS011;12046;44.702;10.622;2022-08-21T02:55:49;4.22;;;2.35;;
23730;SDS011;12046;44.702;10.622;2022-08-21T02:58:17;3.63;;;2.13;;
23730;SDS011;12046;44.702;10.622;2022-08-21T03:00:45;3.17;;;2.28;;
23730;SDS011;12046;44.702;10.622;2022-08-21T03:03:12;3.72;;;2.60;;
23730;SDS011;12046;44.702;10.622;2022-08-21T03:05:38;3.25;;;2.20;;
23730;SDS011;12046;44.702;10.622;2022-08-21T03:08:05;3.53;;;2.20;;
23730;SDS011;12046;44.702;10.622;2022-08-21T03:10:36;3.15;;;2.65;;
23730;SDS011;12046;44.702;10.622;2022-08-21T03:13:03;3.42;;;2.22;;
23730;SDS011;12046;44.702;10.622;2022-08-21T03:15:29;2.90;;;2.00;;
23730;SDS011;12046;44.702;10.622;2022-08-21T03:17:55;2.97;;;1.90;;
23730;SDS011;12046;44.702;10.622;2022-08-21T03:20:22;2.50;;;2.00;;
23730;SDS011;12046;44.702;10.622;2022-08-21T03:22:51;3.40;;;1.45;;
23730;SDS011;12046;44.702;10.622;2022-08-21T03:25:19;1.80;;;1.58;;
23730;SDS011;12046;44.702;10.622;2022-08-21T03:27:45;1.63;;;1.52;;
23730;SDS011;12046;44.702;10.622;2022-08-21T03:30:14;1.83;;;1.63;;
23730;SDS011;12046;44.702;10.622;2022-08-21T03:32:41;4.20;;;1.60;;
23730;SDS011;12046;44.702;10.622;2022-08-21T03:35:08;2.25;;;1.70;;
23730;SDS011;12046;44.702;10.622;2022-08-21T03:37:35;1.70;;;1.58;;
23730;SDS011;12046;44.702;10.622;2022-08-21T03:40:02;4.05;;;1.90;;
23730;SDS011;12046;44.702;10.622;2022-08-21T03:42:33;1.60;;;1.50;;
23730;SDS011;12046;44.702;10.622;2022-08-21T03:44:59;5.32;;;2.00;;
23730;SDS011;12046;44.702;10.622;2022-08-21T03:47:25;2.22;;;1.73;;
23730;SDS011;12046;44.702;10.622;2022-08-21T03:49:51;2.83;;;1.63;;
23730;SDS011;12046;44.702;10.622;2022-08-21T03:52:17;1.98;;;1.42;;
23730;SDS011;12046;44.702;10.622;2022-08-21T03:54:44;3.28;;;1.80;;
23730;SDS011;12046;44.702;10.622;2022-08-21T03:57:10;1.98;;;1.85;;
23730;SDS011;12046;44.702;10.622;2022-08-21T03:59:36;2.50;;;1.88;;
23730;SDS011;12046;44.702;10.622;2022-08-21T04:02:03;2.55;;;1.83;;
23730;SDS011;12046;44.702;10.622;2022-08-21T04:04:31;1.95;;;1.83;;
23730;SDS011;12046;44.702;10.622;2022-08-21T04:06:59;3.20;;;2.10;;
23730;SDS011;12046;44.702;10.622;2022-08-21T04:09:25;4.15;;;2.00;;
23730;SDS011;12046;44.702;10.622;2022-08-21T04:11:51;7.03;;;2.47;;
23730;SDS011;12046;44.702;10.622;2022-08-21T04:14:17;1.70;;;1.60;;
23730;SDS011;12046;44.702;10.622;2022-08-21T04:16:43;2.50;;;1.98;;
23730;SDS011;12046;44.702;10.622;2022-08-21T04:19:11;2.30;;;2.10;;
23730;SDS011;12046;44.702;10.622;2022-08-21T04:21:39;2.45;;;2.13;;
23730;SDS011;12046;44.702;10.622;2022-08-21T04:24:06;5.40;;;1.75;;
23730;SDS011;12046;44.702;10.622;2022-08-21T04:26:33;2.20;;;2.00;;
23730;SDS011;12046;44.702;10.622;2022-08-21T04:29:00;2.13;;;1.65;;
23730;SDS011;12046;44.702;10.622;2022-08-21T04:31:26;2.33;;;1.77;;
23730;SDS011;12046;44.702;10.622;2022-08-21T04:33:53;4.53;;;2.15;;
23730;SDS011;12046;44.702;10.622;2022-08-21T04:36:20;2.38;;;1.77;;
23730;SDS011;12046;44.702;10.622;2022-08-21T04:38:46;5.90;;;1.90;;
23730;SDS011;12046;44.702;10.622;2022-08-21T04:41:12;2.00;;;1.55;;
23730;SDS011;12046;44.702;10.622;2022-08-21T04:43:38;2.33;;;1.70;;
23730;SDS011;12046;44.702;10.622;2022-08-21T04:46:04;2.35;;;2.03;;
23730;SDS011;12046;44.702;10.622;2022-08-21T04:48:30;1.65;;;1.50;;
23730;SDS011;12046;44.702;10.622;2022-08-21T04:53:55;3.20;;;1.50;;
23730;SDS011;12046;44.702;10.622;2022-08-21T04:59:00;2.67;;;1.63;;
23730;SDS011;12046;44.702;10.622;2022-08-21T05:01:30;3.00;;;1.70;;
23730;SDS011;12046;44.702;10.622;2022-08-21T05:03:59;3.20;;;1.33;;
23730;SDS011;12046;44.702;10.622;2022-08-21T05:06:28;3.13;;;1.55;;
23730;SDS011;12046;44.702;10.622;2022-08-21T05:08:58;2.88;;;1.85;;
23730;SDS011;12046;44.702;10.622;2022-08-21T05:11:25;2.92;;;1.60;;
23730;SDS011;12046;44.702;10.622;2022-08-21T05:13:51;2.80;;;1.65;;
23730;SDS011;12046;44.702;10.622;2022-08-21T05:16:17;2.58;;;1.60;;
23730;SDS011;12046;44.702;10.622;2022-08-21T05:18:43;3.17;;;1.63;;
23730;SDS011;12046;44.702;10.622;2022-08-21T05:21:09;1.70;;;1.52;;
23730;SDS011;12046;44.702;10.622;2022-08-21T05:23:35;3.40;;;1.40;;
23730;SDS011;12046;44.702;10.622;2022-08-21T05:26:01;1.85;;;1.23;;
23730;SDS011;12046;44.702;10.622;2022-08-21T05:28:29;1.50;;;1.38;;
23730;SDS011;12046;44.702;10.622;2022-08-21T05:30:56;1.42;;;1.20;;
23730;SDS011;12046;44.702;10.622;2022-08-21T05:33:22;5.75;;;1.63;;
23730;SDS011;12046;44.702;10.622;2022-08-21T05:35:51;4.15;;;1.58;;
23730;SDS011;12046;44.702;10.622;2022-08-21T05:38:21;3.47;;;1.42;;
23730;SDS011;12046;44.702;10.622;2022-08-21T05:40:52;2.38;;;1.48;;
23730;SDS011;12046;44.702;10.622;2022-08-21T05:43:19;2.25;;;1.17;;
23730;SDS011;12046;44.702;10.622;2022-08-21T05:45:45;2.20;;;1.13;;
23730;SDS011;12046;44.702;10.622;2022-08-21T05:48:12;1.25;;;1.05;;
23730;SDS011;12046;44.702;10.622;2022-08-21T05:50:42;0.95;;;0.88;;
23730;SDS011;12046;44.702;10.622;2022-08-21T05:53:08;2.28;;;1.13;;
23730;SDS011;12046;44.702;10.622;2022-08-21T05:55:35;2.55;;;1.20;;
23730;SDS011;12046;44.702;10.622;2022-08-21T05:58:03;1.88;;;1.05;;
23730;SDS011;12046;44.702;10.622;2022-08-21T06:00:30;2.67;;;1.15;;
23730;SDS011;12046;44.702;10.622;2022-08-21T06:02:56;2.22;;;0.90;;
23730;SDS011;12046;44.702;10.622;2022-08-21T06:05:23;2.25;;;0.90;;
23730;SDS011;12046;44.702;10.622;2022-08-21T06:07:49;1.20;;;0.90;;
23730;SDS011;12046;44.702;10.622;2022-08-21T06:10:15;1.20;;;1.10;;
23730;SDS011;12046;44.702;10.622;2022-08-21T06:12:41;1.73;;;0.80;;
23730;SDS011;12046;44.702;10.622;2022-08-21T06:15:07;1.90;;;1.08;;
23730;SDS011;12046;44.702;10.622;2022-08-21T06:17:39;4.50;;;0.88;;
23730;SDS011;12046;44.702;10.622;2022-08-21T06:20:05;1.10;;;1.00;;
23730;SDS011;12046;44.702;10.622;2022-08-21T06:22:32;1.60;;;1.10;;
23730;SDS011;12046;44.702;10.622;2022-08-21T06:24:57;1.52;;;1.08;;
23730;SDS011;12046;44.702;10.622;2022-08-21T06:27:23;2.05;;;0.80;;
23730;SDS011;12046;44.702;10.622;2022-08-21T06:29:49;1.00;;;0.90;;
23730;SDS011;12046;44.702;10.622;2022-08-21T06:32:15;1.08;;;0.95;;
23730;SDS011;12046;44.702;10.622;2022-08-21T06:34:41;1.92;;;0.93;;
23730;SDS011;12046;44.702;10.622;2022-08-21T06:37:07;1.00;;;0.88;;
23730;SDS011;12046;44.702;10.622;2022-08-21T06:39:33;1.27;;;0.98;;
23730;SDS011;12046;44.702;10.622;2022-08-21T06:42:00;1.23;;;0.85;;
23730;SDS011;12046;44.702;10.622;2022-08-21T06:44:25;0.80;;;0.80;;
23730;SDS011;12046;44.702;10.622;2022-08-21T06:46:51;1.45;;;0.82;;
23730;SDS011;12046;44.702;10.622;2022-08-21T06:49:17;1.50;;;0.93;;
23730;SDS011;12046;44.702;10.622;2022-08-21T06:51:43;2.20;;;1.10;;
23730;SDS011;12046;44.702;10.622;2022-08-21T06:54:09;1.33;;;0.88;;
23730;SDS011;12046;44.702;10.622;2022-08-21T06:56:35;3.05;;;0.90;;
23730;SDS011;12046;44.702;10.622;2022-08-21T06:59:03;3.47;;;0.95;;
23730;SDS011;12046;44.702;10.622;2022-08-21T07:01:32;2.35;;;0.90;;
23730;SDS011;12046;44.702;10.622;2022-08-21T07:03:58;2.15;;;1.33;;
23730;SDS011;12046;44.702;10.622;2022-08-21T07:06:24;1.98;;;0.90;;
23730;SDS011;12046;44.702;10.622;2022-08-21T07:08:50;2.85;;;0.98;;
23730;SDS011;12046;44.702;10.622;2022-08-21T07:11:21;2.90;;;1.00;;
23730;SDS011;12046;44.702;10.622;2022-08-21T07:13:48;3.50;;;1.17;;
23730;SDS011;12046;44.702;10.622;2022-08-21T07:16:16;2.70;;;1.13;;
23730;SDS011;12046;44.702;10.622;2022-08-21T07:18:42;1.65;;;1.10;;
23730;SDS011;12046;44.702;10.622;2022-08-21T07:21:08;3.17;;;1.10;;
23730;SDS011;12046;44.702;10.622;2022-08-21T07:23:36;3.50;;;1.60;;
23730;SDS011;12046;44.702;10.622;2022-08-21T07:26:07;1.95;;;0.88;;
23730;SDS011;12046;44.702;10.622;2022-08-21T07:28:33;5.15;;;1.63;;
23730;SDS011;12046;44.702;10.622;2022-08-21T07:31:00;1.20;;;1.10;;
23730;SDS011;12046;44.702;10.622;2022-08-21T07:33:27;3.05;;;1.13;;
23730;SDS011;12046;44.702;10.622;2022-08-21T07:35:54;1.73;;;1.17;;
23730;SDS011;12046;44.702;10.622;2022-08-21T07:38:21;1.30;;;1.20;;
23730;SDS011;12046;44.702;10.622;2022-08-21T07:40:47;1.38;;;1.27;;
23730;SDS011;12046;44.702;10.622;2022-08-21T07:43:16;1.98;;;1.58;;
23730;SDS011;12046;44.702;10.622;2022-08-21T07:45:43;3.28;;;1.40;;
23730;SDS011;12046;44.702;10.622;2022-08-21T07:48:10;7.03;;;1.00;;
23730;SDS011;12046;44.702;10.622;2022-08-21T07:50:36;2.22;;;1.23;;
23730;SDS011;12046;44.702;10.622;2022-08-21T07:53:02;3.20;;;1.20;;
23730;SDS011;12046;44.702;10.622;2022-08-21T07:55:29;1.40;;;1.30;;
23730;SDS011;12046;44.702;10.622;2022-08-21T07:57:55;2.00;;;1.20;;
23730;SDS011;12046;44.702;10.622;2022-08-21T08:00:22;2.10;;;1.77;;
23730;SDS011;12046;44.702;10.622;2022-08-21T08:02:50;2.85;;;1.50;;
23730;SDS011;12046;44.702;10.622;2022-08-21T08:05:19;2.28;;;1.70;;
23730;SDS011;12046;44.702;10.622;2022-08-21T08:07:47;2.05;;;1.63;;
23730;SDS011;12046;44.702;10.622;2022-08-21T08:10:14;3.30;;;1.90;;
23730;SDS011;12046;44.702;10.622;2022-08-21T08:12:41;1.83;;;1.48;;
23730;SDS011;12046;44.702;10.622;2022-08-21T08:15:10;3.17;;;2.10;;
23730;SDS011;12046;44.702;10.622;2022-08-21T08:17:38;2.40;;;1.83;;
23730;SDS011;12046;44.702;10.622;2022-08-21T08:20:10;2.63;;;2.00;;
23730;SDS011;12046;44.702;10.622;2022-08-21T08:22:38;2.38;;;1.90;;
23730;SDS011;12046;44.702;10.622;2022-08-21T08:25:06;2.45;;;2.25;;
23730;SDS011;12046;44.702;10.622;2022-08-21T08:27:33;2.38;;;2.10;;
23730;SDS011;12046;44.702;10.622;2022-08-21T08:29:59;3.47;;;2.10;;
23730;SDS011;12046;44.702;10.622;2022-08-21T08:32:25;3.33;;;2.42;;
23730;SDS011;12046;44.702;10.622;2022-08-21T08:34:51;4.13;;;2.33;;
23730;SDS011;12046;44.702;10.622;2022-08-21T08:37:20;5.65;;;3.45;;
23730;SDS011;12046;44.702;10.622;2022-08-21T08:39:46;11.23;;;3.45;;
23730;SDS011;12046;44.702;10.622;2022-08-21T08:44:44;3.38;;;3.08;;
23730;SDS011;12046;44.702;10.622;2022-08-21T08:47:16;4.35;;;3.10;;
23730;SDS011;12046;44.702;10.622;2022-08-21T08:49:56;5.05;;;3.17;;
23730;SDS011;12046;44.702;10.622;2022-08-21T08:52:29;7.07;;;2.97;;
23730;SDS011;12046;44.702;10.622;2022-08-21T08:57:35;5.65;;;4.03;;
23730;SDS011;12046;44.702;10.622;2022-08-21T09:00:05;6.13;;;3.55;;
23730;SDS011;12046;44.702;10.622;2022-08-21T09:02:38;5.70;;;3.70;;
23730;SDS011;12046;44.702;10.622;2022-08-21T09:05:05;3.30;;;2.92;;
23730;SDS011;12046;44.702;10.622;2022-08-21T09:10:21;5.90;;;4.32;;
23730;SDS011;12046;44.702;10.622;2022-08-21T09:12:56;5.80;;;4.25;;
23730;SDS011;12046;44.702;10.622;2022-08-21T09:15:32;4.28;;;3.47;;
23730;SDS011;12046;44.702;10.622;2022-08-21T09:18:06;5.22;;;3.67;;
23730;SDS011;12046;44.702;10.622;2022-08-21T09:23:48;4.10;;;3.70;;
23730;SDS011;12046;44.702;10.622;2022-08-21T09:26:31;4.10;;;3.70;;
23730;SDS011;12046;44.702;10.622;2022-08-21T09:29:11;5.65;;;3.55;;
23730;SDS011;12046;44.702;10.622;2022-08-21T09:31:37;5.13;;;4.07;;
23730;SDS011;12046;44.702;10.622;2022-08-21T09:34:08;5.10;;;3.33;;
23730;SDS011;12046;44.702;10.622;2022-08-21T09:36:43;3.35;;;2.97;;
23730;SDS011;12046;44.702;10.622;2022-08-21T09:39:13;4.22;;;2.80;;
23730;SDS011;12046;44.702;10.622;2022-08-21T09:41:49;5.40;;;3.40;;
23730;SDS011;12046;44.702;10.622;2022-08-21T09:44:29;5.65;;;3.25;;
23730;SDS011;12046;44.702;10.622;2022-08-21T09:46:58;4.90;;;2.97;;
23730;SDS011;12046;44.702;10.622;2022-08-21T09:49:31;4.20;;;3.70;;
23730;SDS011;12046;44.702;10.622;2022-08-21T09:51:59;4.60;;;4.00;;
23730;SDS011;12046;44.702;10.622;2022-08-21T09:54:30;7.22;;;3.30;;
23730;SDS011;12046;44.702;10.622;2022-08-21T09:59:53;5.80;;;3.38;;
23730;SDS011;12046;44.702;10.622;2022-08-21T10:04:56;6.18;;;3.85;;
23730;SDS011;12046;44.702;10.622;2022-08-21T10:07:26;3.00;;;2.65;;
23730;SDS011;12046;44.702;10.622;2022-08-21T10:17:38;28.40;;;6.75;;
23730;SDS011;12046;44.702;10.622;2022-08-21T10:23:25;16.80;;;4.97;;
23730;SDS011;12046;44.702;10.622;2022-08-21T10:34:41;3.22;;;2.53;;
23730;SDS011;12046;44.702;10.622;2022-08-21T10:48:36;2.83;;;1.75;;
23730;SDS011;12046;44.702;10.622;2022-08-21T10:51:07;2.95;;;1.60;;
23730;SDS011;12046;44.702;10.622;2022-08-21T11:03:52;2.72;;;1.60;;
23730;SDS011;12046;44.702;10.622;2022-08-21T11:06:29;1.98;;;1.48;;
23730;SDS011;12046;44.702;10.622;2022-08-21T11:09:07;2.67;;;1.48;;
23730;SDS011;12046;44.702;10.622;2022-08-21T11:11:41;2.45;;;1.75;;
23730;SDS011;12046;44.702;10.622;2022-08-21T11:14:24;2.72;;;1.98;;
23730;SDS011;12046;44.702;10.622;2022-08-21T11:17:00;3.17;;;1.75;;
23730;SDS011;12046;44.702;10.622;2022-08-21T11:19:40;1.73;;;1.60;;
23730;SDS011;12046;44.702;10.622;2022-08-21T11:22:21;2.85;;;1.83;;
23730;SDS011;12046;44.702;10.622;2022-08-21T11:25:22;1.33;;;1.20;;
23730;SDS011;12046;44.702;10.622;2022-08-21T11:30:27;3.20;;;1.60;;
23730;SDS011;12046;44.702;10.622;2022-08-21T11:33:04;3.20;;;1.60;;
23730;SDS011;12046;44.702;10.622;2022-08-21T11:36:00;1.77;;;1.60;;
23730;SDS011;12046;44.702;10.622;2022-08-21T11:38:35;1.60;;;1.50;;
23730;SDS011;12046;44.702;10.622;2022-08-21T11:44:30;3.55;;;1.35;;
23730;SDS011;12046;44.702;10.622;2022-08-21T11:56:59;1.52;;;1.30;;
23730;SDS011;12046;44.702;10.622;2022-08-21T12:02:18;0.82;;;0.82;;
23730;SDS011;12046;44.702;10.622;2022-08-21T12:04:53;1.73;;;0.95;;
23730;SDS011;12046;44.702;10.622;2022-08-21T12:07:43;1.08;;;1.08;;
23730;SDS011;12046;44.702;10.622;2022-08-21T12:10:12;1.73;;;0.98;;
23730;SDS011;12046;44.702;10.622;2022-08-21T12:12:42;1.98;;;1.58;;
23730;SDS011;12046;44.702;10.622;2022-08-21T12:17:52;1.67;;;1.20;;
23730;SDS011;12046;44.702;10.622;2022-08-21T12:22:54;2.10;;;1.17;;
23730;SDS011;12046;44.702;10.622;2022-08-21T12:25:58;1.35;;;0.98;;
23730;SDS011;12046;44.702;10.622;2022-08-21T12:28:34;1.35;;;1.05;;
23730;SDS011;12046;44.702;10.622;2022-08-21T12:31:00;1.30;;;1.20;;
23730;SDS011;12046;44.702;10.622;2022-08-21T12:33:34;1.45;;;1.13;;
23730;SDS011;12046;44.702;10.622;2022-08-21T12:36:14;0.90;;;0.90;;
23730;SDS011;12046;44.702;10.622;2022-08-21T12:41:26;1.20;;;0.75;;
23730;SDS011;12046;44.702;10.622;2022-08-21T12:43:59;0.75;;;0.70;;
23730;SDS011;12046;44.702;10.622;2022-08-21T12:46:50;1.33;;;1.23;;
23730;SDS011;12046;44.702;10.622;2022-08-21T12:52:05;4.28;;;0.90;;
23730;SDS011;12046;44.702;10.622;2022-08-21T12:54:43;0.82;;;0.80;;
23730;SDS011;12046;44.702;10.622;2022-08-21T12:57:17;2.38;;;0.93;;
23730;SDS011;12046;44.702;10.622;2022-08-21T12:59:52;0.82;;;0.80;;
23730;SDS011;12046;44.702;10.622;2022-08-21T13:02:21;0.80;;;0.80;;
23730;SDS011;12046;44.702;10.622;2022-08-21T13:04:50;1.50;;;1.08;;
23730;SDS011;12046;44.702;10.622;2022-08-21T13:07:31;2.85;;;1.00;;
23730;SDS011;12046;44.702;10.622;2022-08-21T13:10:00;4.18;;;1.00;;
23730;SDS011;12046;44.702;10.622;2022-08-21T13:12:49;1.00;;;0.85;;
23730;SDS011;12046;44.702;10.622;2022-08-21T13:15:23;1.20;;;0.90;;
23730;SDS011;12046;44.702;10.622;2022-08-21T13:17:53;1.95;;;0.80;;
23730;SDS011;12046;44.702;10.622;2022-08-21T13:20:23;2.95;;;0.93;;
23730;SDS011;12046;44.702;10.622;2022-08-21T13:22:52;0.70;;;0.70;;
23730;SDS011;12046;44.702;10.622;2022-08-21T13:25:20;0.68;;;0.68;;
23730;SDS011;12046;44.702;10.622;2022-08-21T13:28:00;1.30;;;1.05;;
23730;SDS011;12046;44.702;10.622;2022-08-21T13:30:28;1.20;;;0.70;;
23730;SDS011;12046;44.702;10.622;2022-08-21T13:32:57;1.33;;;0.80;;
23730;SDS011;12046;44.702;10.622;2022-08-21T13:35:30;1.65;;;1.10;;
23730;SDS011;12046;44.702;10.622;2022-08-21T13:38:02;0.80;;;0.80;;
23730;SDS011;12046;44.702;10.622;2022-08-21T13:40:42;0.75;;;0.70;;
23730;SDS011;12046;44.702;10.622;2022-08-21T13:43:14;2.00;;;0.70;;
23730;SDS011;12046;44.702;10.622;2022-08-21T13:45:43;0.70;;;0.63;;
23730;SDS011;12046;44.702;10.622;2022-08-21T13:48:12;0.82;;;0.80;;
23730;SDS011;12046;44.702;10.622;2022-08-21T13:50:39;1.90;;;0.70;;
23730;SDS011;12046;44.702;10.622;2022-08-21T13:53:07;1.08;;;0.65;;
23730;SDS011;12046;44.702;10.622;2022-08-21T13:55:56;0.50;;;0.50;;
23730;SDS011;12046;44.702;10.622;2022-08-21T13:58:28;2.10;;;0.88;;
23730;SDS011;12046;44.702;10.622;2022-08-21T14:03:52;1.90;;;0.70;;
23730;SDS011;12046;44.702;10.622;2022-08-21T14:06:25;1.88;;;0.80;;
23730;SDS011;12046;44.702;10.622;2022-08-21T14:08:55;1.15;;;1.02;;
23730;SDS011;12046;44.702;10.622;2022-08-21T14:11:24;1.33;;;0.90;;
23730;SDS011;12046;44.702;10.622;2022-08-21T14:16:25;0.73;;;0.73;;
23730;SDS011;12046;44.702;10.622;2022-08-21T14:19:05;2.47;;;0.70;;
23730;SDS011;12046;44.702;10.622;2022-08-21T14:21:37;1.85;;;0.60;;
23730;SDS011;12046;44.702;10.622;2022-08-21T14:24:25;0.70;;;0.60;;
23730;SDS011;12046;44.702;10.622;2022-08-21T14:26:55;1.02;;;0.90;;
23730;SDS011;12046;44.702;10.622;2022-08-21T14:29:33;0.95;;;0.70;;
23730;SDS011;12046;44.702;10.622;2022-08-21T14:32:13;1.85;;;0.90;;
23730;SDS011;12046;44.702;10.622;2022-08-21T14:34:41;3.20;;;0.93;;
23730;SDS011;12046;44.702;10.622;2022-08-21T14:37:07;0.75;;;0.65;;
23730;SDS011;12046;44.702;10.622;2022-08-21T14:39:33;1.02;;;0.68;;
23730;SDS011;12046;44.702;10.622;2022-08-21T14:41:59;1.00;;;0.70;;
23730;SDS011;12046;44.702;10.622;2022-08-21T14:44:26;1.30;;;0.70;;
23730;SDS011;12046;44.702;10.622;2022-08-21T14:46:52;1.73;;;0.80;;
23730;SDS011;12046;44.702;10.622;2022-08-21T14:49:20;2.67;;;0.85;;
23730;SDS011;12046;44.702;10.622;2022-08-21T14:51:46;1.67;;;0.88;;
23730;SDS011;12046;44.702;10.622;2022-08-21T14:54:14;1.80;;;0.80;;
23730;SDS011;12046;44.702;10.622;2022-08-21T14:56:40;0.63;;;0.60;;
23730;SDS011;12046;44.702;10.622;2022-08-21T14:59:06;0.68;;;0.50;;
23730;SDS011;12046;44.702;10.622;2022-08-21T15:01:34;1.52;;;0.93;;
23730;SDS011;12046;44.702;10.622;2022-08-21T15:04:03;0.63;;;0.63;;
23730;SDS011;12046;44.702;10.622;2022-08-21T15:06:29;0.50;;;0.50;;
23730;SDS011;12046;44.702;10.622;2022-08-21T15:08:55;0.63;;;0.40;;
23730;SDS011;12046;44.702;10.622;2022-08-21T15:11:22;2.03;;;0.75;;
23730;SDS011;12046;44.702;10.622;2022-08-21T15:13:50;0.70;;;0.60;;
23730;SDS011;12046;44.702;10.622;2022-08-21T15:16:21;1.25;;;0.70;;
23730;SDS011;12046;44.702;10.622;2022-08-21T15:18:48;0.80;;;0.77;;
23730;SDS011;12046;44.702;10.622;2022-08-21T15:21:14;3.08;;;0.60;;
23730;SDS011;12046;44.702;10.622;2022-08-21T15:23:40;0.68;;;0.68;;
23730;SDS011;12046;44.702;10.622;2022-08-21T15:26:06;0.70;;;0.70;;
23730;SDS011;12046;44.702;10.622;2022-08-21T15:28:33;0.63;;;0.63;;
23730;SDS011;12046;44.702;10.622;2022-08-21T15:31:00;1.10;;;0.80;;
23730;SDS011;12046;44.702;10.622;2022-08-21T15:33:26;0.70;;;0.60;;
23730;SDS011;12046;44.702;10.622;2022-08-21T15:35:53;0.60;;;0.60;;
23730;SDS011;12046;44.702;10.622;2022-08-21T15:38:19;1.70;;;0.70;;
23730;SDS011;12046;44.702;10.622;2022-08-21T15:40:45;0.40;;;0.40;;
23730;SDS011;12046;44.702;10.622;2022-08-21T15:43:18;1.00;;;0.80;;
23730;SDS011;12046;44.702;10.622;2022-08-21T15:45:48;1.42;;;0.70;;
23730;SDS011;12046;44.702;10.622;2022-08-21T15:48:15;1.13;;;0.70;;
23730;SDS011;12046;44.702;10.622;2022-08-21T15:50:41;0.60;;;0.60;;
23730;SDS011;12046;44.702;10.622;2022-08-21T15:53:07;0.73;;;0.73;;
23730;SDS011;12046;44.702;10.622;2022-08-21T15:55:33;1.75;;;0.80;;
23730;SDS011;12046;44.702;10.622;2022-08-21T15:57:59;0.70;;;0.65;;
23730;SDS011;12046;44.702;10.622;2022-08-21T16:00:26;1.90;;;0.70;;
23730;SDS011;12046;44.702;10.622;2022-08-21T16:02:54;0.73;;;0.70;;
23730;SDS011;12046;44.702;10.622;2022-08-21T16:05:22;0.57;;;0.57;;
23730;SDS011;12046;44.702;10.622;2022-08-21T16:07:49;2.38;;;0.80;;
23730;SDS011;12046;44.702;10.622;2022-08-21T16:10:17;1.02;;;0.77;;
23730;SDS011;12046;44.702;10.622;2022-08-21T16:12:55;1.08;;;0.90;;
23730;SDS011;12046;44.702;10.622;2022-08-21T16:15:26;1.67;;;0.82;;
23730;SDS011;12046;44.702;10.622;2022-08-21T16:17:52;0.70;;;0.70;;
23730;SDS011;12046;44.702;10.622;2022-08-21T16:20:21;0.90;;;0.80;;
23730;SDS011;12046;44.702;10.622;2022-08-21T16:22:50;1.23;;;0.90;;